Pondicherry Airport

Current Flights

Departures
Number Departure To Airline
 SG3420 14:00 +421  Bangalore  SpiceJet
 SG1005 11:45  Hyderabad  SpiceJet
 SG3420 14:00  Bangalore  SpiceJet
 SG1005 11:45  Hyderabad  SpiceJet
 SG3420 14:00  Bangalore  SpiceJet
Arrivals
Number Arrival From Airline
 SG3419 13:35 +446  Bangalore  SpiceJet
 SG1004 11:25  Hyderabad  SpiceJet
 SG3419 13:35  Bangalore  SpiceJet
Info
Name: Pondicherry Airport
Identifier:  PNY/VOPC
Local Time:  22. May 21:01
City
Puducherry
  India

Flights per Day
2 flights
Distance: 474km (294mi)
Punctuality
77% (0 flights per day delayed)
Delay Average: 29 minutes
Current Weather
 36 C (Humidity: 56%)
  0kt from variable
  Scattered clouds at 2,000 feet (609 meter)
  6km (3 mi.)
No significant changes expected

 METAR VOPC 220830Z VRB03KT 6000 SCT020 36/26 Q1007 NOSIG

Current Delays

Departures
N/A
Arrivals
N/A

Destinations

Top Destinations
Airport Flights
per week
Seats
per week
  Hyderabad (HYD) 7 959 1 137
  Bangalore (BLR) 7 490 1 70

Airlines & Planes

Top Airlines
Airline Flights
per Day
Seats
per Day
  SpiceJet 3 208
Top Plane Types
Manufacturer Model Flights Seats
Bombardier Dash 8-400 2.5/day 192/day 192.4
Bombardier Dash 8-400 0.6/day 15/day 15.6